createdAt,value
2019-06-10T00:01:32.747Z,3.00
2019-06-10T00:04:05.140Z,2.50
2019-06-10T00:06:31.768Z,2.70
2019-06-10T00:09:03.151Z,3.20
2019-06-10T00:11:31.530Z,3.17
2019-06-10T00:14:02.438Z,2.90
2019-06-10T00:16:30.943Z,2.57
2019-06-10T00:19:02.798Z,2.80
2019-06-10T00:21:30.806Z,2.83
2019-06-10T00:24:02.156Z,3.13
2019-06-10T00:26:30.738Z,2.73
2019-06-10T00:29:00.682Z,3.27
2019-06-10T00:31:31.303Z,3.03
2019-06-10T00:34:02.961Z,3.30
2019-06-10T00:36:30.977Z,2.70
2019-06-10T00:39:02.461Z,3.20
2019-06-10T00:41:31.264Z,2.80
2019-06-10T00:44:01.822Z,3.00
2019-06-10T00:46:31.652Z,3.03
2019-06-10T00:49:02.962Z,2.70
2019-06-10T00:51:31.382Z,2.60
2019-06-10T00:54:03.276Z,3.40
2019-06-10T00:56:30.821Z,2.60
2019-06-10T00:59:01.038Z,3.00
2019-06-10T01:01:31.272Z,2.50
2019-06-10T01:04:02.960Z,2.73
2019-06-10T01:06:31.868Z,2.80
2019-06-10T01:09:00.763Z,3.07
2019-06-10T01:11:31.073Z,2.97
2019-06-10T01:14:01.457Z,3.13
2019-06-10T01:16:31.849Z,3.43
2019-06-10T01:19:01.522Z,3.40
2019-06-10T01:21:31.320Z,3.20
2019-06-10T01:24:01.202Z,3.00
2019-06-10T01:26:31.036Z,3.37
2019-06-10T01:29:01.000Z,3.30
2019-06-10T01:31:31.785Z,3.00
2019-06-10T01:34:00.768Z,2.80
2019-06-10T01:36:31.416Z,3.20
2019-06-10T01:39:01.569Z,2.93
2019-06-10T01:41:30.628Z,3.03
2019-06-10T01:44:01.577Z,3.20
2019-06-10T01:46:31.673Z,3.53
2019-06-10T01:49:00.760Z,3.50
2019-06-10T01:51:31.528Z,3.03
2019-06-10T01:54:01.299Z,3.40
2019-06-10T01:56:31.452Z,3.17
2019-06-10T01:59:01.491Z,3.30
2019-06-10T02:01:43.957Z,3.30
2019-06-10T02:04:15.002Z,3.30
2019-06-10T02:06:42.859Z,3.43
2019-06-10T02:09:13.889Z,3.43
2019-06-10T02:11:41.850Z,3.30
2019-06-10T02:14:14.634Z,3.37
2019-06-10T02:16:41.429Z,3.90
2019-06-10T02:19:13.796Z,4.53
2019-06-10T02:21:41.691Z,4.23
2019-06-10T02:24:12.853Z,3.57
2019-06-10T02:26:41.115Z,3.67
2019-06-10T02:29:12.486Z,3.40
2019-06-10T02:31:43.131Z,3.83
2019-06-10T02:34:13.218Z,3.87
2019-06-10T02:36:44.262Z,3.33
2019-06-10T02:39:16.147Z,3.80
2019-06-10T02:41:44.595Z,3.43
2019-06-10T02:44:17.201Z,4.43
2019-06-10T02:46:43.959Z,4.40
2019-06-10T02:49:23.270Z,4.60
2019-06-10T02:51:44.009Z,3.87
2019-06-10T02:54:16.119Z,4.40
2019-06-10T02:56:44.100Z,3.30
2019-06-10T02:59:13.462Z,3.40
2019-06-10T03:01:44.045Z,4.30
2019-06-10T03:04:13.739Z,4.13
2019-06-10T03:06:44.856Z,3.80
2019-06-10T03:09:14.055Z,3.60
2019-06-10T03:11:44.831Z,3.73
2019-06-10T03:14:13.392Z,4.33
2019-06-10T03:16:43.595Z,3.97
2019-06-10T03:19:13.308Z,3.97
2019-06-10T03:21:42.869Z,3.97
2019-06-10T03:24:13.207Z,3.77
2019-06-10T03:26:42.821Z,3.97
2019-06-10T03:29:12.855Z,4.20
2019-06-10T03:31:47.807Z,4.17
2019-06-10T03:34:14.765Z,4.23
2019-06-10T03:36:42.932Z,4.73
2019-06-10T03:39:13.310Z,3.40
2019-06-10T03:41:42.467Z,3.90
2019-06-10T03:44:13.182Z,4.03
2019-06-10T03:46:43.081Z,4.60
2019-06-10T03:49:12.706Z,4.00
2019-06-10T03:51:42.901Z,4.13
2019-06-10T03:54:13.087Z,4.33
2019-06-10T03:56:43.021Z,4.20
2019-06-10T03:59:12.359Z,4.03
2019-06-10T04:01:42.594Z,3.90
2019-06-10T04:04:13.060Z,4.60
2019-06-10T04:06:44.212Z,4.50
2019-06-10T04:09:12.294Z,3.93
2019-06-10T04:11:43.042Z,4.67
2019-06-10T04:14:13.027Z,4.47
2019-06-10T04:16:43.271Z,4.20
2019-06-10T04:19:13.191Z,3.90
2019-06-10T04:21:43.308Z,3.90
2019-06-10T04:24:12.831Z,4.27
2019-06-10T04:26:43.443Z,4.60
2019-06-10T04:29:12.919Z,4.70
2019-06-10T04:31:42.509Z,4.40
2019-06-10T04:34:12.471Z,4.33
2019-06-10T04:36:42.342Z,4.27
2019-06-10T04:39:12.519Z,4.90
2019-06-10T04:41:42.622Z,4.20
2019-06-10T04:44:13.220Z,4.50
2019-06-10T04:46:42.796Z,5.10
2019-06-10T04:49:13.210Z,4.47
2019-06-10T04:51:43.468Z,5.60
2019-06-10T04:54:13.344Z,4.80
2019-06-10T04:56:42.986Z,5.13
2019-06-10T04:59:17.233Z,5.50
2019-06-10T05:01:56.822Z,4.90
2019-06-10T05:04:28.763Z,5.40
2019-06-10T05:06:57.704Z,4.97
2019-06-10T05:09:27.936Z,4.90
2019-06-10T05:11:56.581Z,4.83
2019-06-10T05:14:26.689Z,5.20
2019-06-10T05:16:55.555Z,5.20
2019-06-10T05:19:25.922Z,5.37
2019-06-10T05:21:54.509Z,5.73
2019-06-10T05:24:25.348Z,6.00
2019-06-10T05:26:53.449Z,5.60
2019-06-10T05:29:23.537Z,5.43
2019-06-10T05:31:52.399Z,4.80
2019-06-10T05:34:23.595Z,5.57
2019-06-10T05:36:52.575Z,5.27
2019-06-10T05:39:23.724Z,5.90
2019-06-10T05:41:53.069Z,5.73
2019-06-10T05:44:23.929Z,5.33
2019-06-10T05:46:52.901Z,6.00
2019-06-10T05:49:24.164Z,5.47
2019-06-10T05:51:52.692Z,5.90
2019-06-10T05:54:23.394Z,5.90
2019-06-10T05:56:52.292Z,6.17
2019-06-10T05:59:23.033Z,6.50
2019-06-10T06:01:53.842Z,6.37
2019-06-10T06:04:23.313Z,5.80
2019-06-10T06:06:53.136Z,5.47
2019-06-10T06:09:22.223Z,6.03
2019-06-10T06:11:52.388Z,6.27
2019-06-10T06:14:22.614Z,6.27
2019-06-10T06:16:53.396Z,6.47
2019-06-10T06:19:23.126Z,6.67
2019-06-10T06:21:53.011Z,6.40
2019-06-10T06:24:22.076Z,6.83
2019-06-10T06:26:53.283Z,6.50
2019-06-10T06:29:22.229Z,5.83
2019-06-10T06:31:52.377Z,6.17
2019-06-10T06:34:22.488Z,5.97
2019-06-10T06:36:52.843Z,6.03
2019-06-10T06:39:24.155Z,5.90
2019-06-10T06:41:52.854Z,6.37
2019-06-10T06:44:23.304Z,5.50
2019-06-10T06:46:53.273Z,5.70
2019-06-10T06:49:23.107Z,6.73
2019-06-10T06:51:58.857Z,6.50
2019-06-10T06:54:22.990Z,6.67
2019-06-10T06:56:53.438Z,5.80
2019-06-10T06:59:22.409Z,5.60
2019-06-10T07:01:52.471Z,6.77
2019-06-10T07:04:23.522Z,5.77
2019-06-10T07:06:55.163Z,6.90
2019-06-10T07:09:22.465Z,6.53
2019-06-10T07:11:52.962Z,6.97
2019-06-10T07:14:23.827Z,6.40
2019-06-10T07:16:52.961Z,6.10
2019-06-10T07:19:22.678Z,5.87
2019-06-10T07:22:08.594Z,6.10
2019-06-10T07:24:23.176Z,5.90
2019-06-10T07:26:54.951Z,6.20
2019-06-10T07:29:22.693Z,5.40
2019-06-10T07:31:53.498Z,5.00
2019-06-10T07:34:22.251Z,5.70
2019-06-10T07:36:52.170Z,5.90
2019-06-10T07:39:22.736Z,6.70
2019-06-10T07:41:53.140Z,6.10
2019-06-10T07:44:22.673Z,6.10
2019-06-10T07:46:53.021Z,6.50
2019-06-10T07:49:23.880Z,6.27
2019-06-10T07:51:52.419Z,6.90
2019-06-10T07:54:23.066Z,5.13
2019-06-10T07:56:53.710Z,5.80
2019-06-10T07:59:25.909Z,6.13
2019-06-10T08:01:56.741Z,5.90
2019-06-10T08:04:25.439Z,7.00
2019-06-10T08:06:54.033Z,6.00
2019-06-10T08:09:22.869Z,5.47
2019-06-10T08:11:53.243Z,5.53
2019-06-10T08:14:22.335Z,5.70
2019-06-10T08:16:53.200Z,5.87
2019-06-10T08:19:34.484Z,5.80
2019-06-10T08:21:54.137Z,6.20
2019-06-10T08:24:22.745Z,6.70
2019-06-10T08:26:53.093Z,5.60
2019-06-10T08:29:23.403Z,5.87
2019-06-10T08:31:53.239Z,5.60
2019-06-10T08:34:22.336Z,5.87
2019-06-10T08:36:54.176Z,5.67
2019-06-10T08:39:23.082Z,6.93
2019-06-10T08:41:52.811Z,5.50
2019-06-10T08:44:23.051Z,5.43
2019-06-10T08:46:52.415Z,6.20
2019-06-10T08:49:23.693Z,6.40
2019-06-10T08:51:53.481Z,5.97
2019-06-10T08:54:23.430Z,6.27
2019-06-10T08:56:54.115Z,6.20
2019-06-10T08:59:23.095Z,5.80
2019-06-10T09:01:56.711Z,5.40
2019-06-10T09:04:22.831Z,5.97
2019-06-10T09:06:53.806Z,6.13
2019-06-10T09:09:22.806Z,5.53
2019-06-10T09:11:54.727Z,5.70
2019-06-10T09:14:23.436Z,5.90
2019-06-10T09:16:54.258Z,6.23
2019-06-10T09:19:22.362Z,6.20
2019-06-10T09:21:55.749Z,6.70
2019-06-10T09:24:22.262Z,5.70
2019-06-10T09:26:52.472Z,6.93
2019-06-10T09:29:22.297Z,7.00
2019-06-10T09:31:53.263Z,6.27
2019-06-10T09:34:23.793Z,6.50
2019-06-10T09:36:56.721Z,6.27
2019-06-10T09:39:23.018Z,6.43
2019-06-10T09:42:00.294Z,6.30
2019-06-10T09:44:22.881Z,6.70
2019-06-10T09:46:55.936Z,6.40
2019-06-10T09:49:23.601Z,5.73
2019-06-10T09:51:57.422Z,6.30
2019-06-10T09:54:25.437Z,6.40
2019-06-10T09:56:54.648Z,5.73
2019-06-10T09:59:23.704Z,6.20
2019-06-10T10:01:58.757Z,6.40
2019-06-10T10:04:23.608Z,6.60
2019-06-10T10:06:57.161Z,5.67
2019-06-10T10:09:25.719Z,5.97
2019-06-10T10:11:55.977Z,6.50
2019-06-10T10:14:24.648Z,6.37
2019-06-10T10:16:59.839Z,5.67
2019-06-10T10:19:23.572Z,5.53
2019-06-10T10:21:57.044Z,6.23
2019-06-10T10:24:23.062Z,6.07
2019-06-10T10:26:57.123Z,6.03
2019-06-10T10:29:22.838Z,5.80
2019-06-10T10:31:52.753Z,6.40
2019-06-10T10:34:23.580Z,6.90
2019-06-10T10:36:56.973Z,5.33
2019-06-10T10:39:24.633Z,6.10
2019-06-10T10:41:56.547Z,5.73
2019-06-10T10:44:23.559Z,5.30
2019-06-10T10:46:54.405Z,6.47
2019-06-10T10:49:22.591Z,6.30
2019-06-10T10:51:51.218Z,5.97
2019-06-10T10:54:29.330Z,5.77
2019-06-10T10:56:55.114Z,6.60
2019-06-10T10:59:22.030Z,6.17
2019-06-10T11:01:52.074Z,5.87
2019-06-10T11:04:23.137Z,6.93
2019-06-10T11:06:54.417Z,12.30
2019-06-10T11:09:23.828Z,11.40
2019-06-10T11:11:54.958Z,14.93
2019-06-10T11:14:23.810Z,7.00
2019-06-10T11:16:56.579Z,5.87
2019-06-10T11:19:22.699Z,6.37
2019-06-10T11:21:51.593Z,6.60
2019-06-10T11:24:33.517Z,7.00
2019-06-10T11:26:53.577Z,6.93
2019-06-10T11:29:21.050Z,6.17
2019-06-10T11:31:53.687Z,6.30
2019-06-10T11:34:21.174Z,6.90
2019-06-10T11:36:50.471Z,7.07
2019-06-10T11:39:19.888Z,6.80
2019-06-10T11:41:48.433Z,6.60
2019-06-10T11:44:17.025Z,6.90
2019-06-10T11:46:46.649Z,6.93
2019-06-10T11:49:15.266Z,6.70
2019-06-10T11:51:43.839Z,6.80
2019-06-10T11:54:12.988Z,7.10
2019-06-10T11:56:42.259Z,6.37
2019-06-10T11:59:13.283Z,6.33
2019-06-10T12:01:42.707Z,7.23
2019-06-10T12:04:12.881Z,6.43
2019-06-10T12:06:42.568Z,6.47
2019-06-10T12:09:13.797Z,6.50
2019-06-10T12:11:43.821Z,6.20
2019-06-10T12:14:12.865Z,6.00
2019-06-10T12:19:12.793Z,6.63
2019-06-10T12:21:43.511Z,6.13
2019-06-10T12:24:12.689Z,5.70
2019-06-10T12:26:43.400Z,6.57
2019-06-10T12:29:12.542Z,5.47
2019-06-10T12:31:42.846Z,6.30
2019-06-10T12:34:12.560Z,6.57
2019-06-10T12:36:41.539Z,6.00
2019-06-10T12:39:14.255Z,5.60
2019-06-10T12:41:42.885Z,5.70
2019-06-10T12:44:12.397Z,5.60
2019-06-10T12:46:43.076Z,5.40
2019-06-10T12:49:13.091Z,5.63
2019-06-10T12:51:42.287Z,5.10
2019-06-10T12:54:13.160Z,4.93
2019-06-10T12:56:42.911Z,4.47
2019-06-10T12:59:13.653Z,4.60
2019-06-10T13:01:44.889Z,4.93
2019-06-10T13:04:13.698Z,5.00
2019-06-10T13:06:44.159Z,5.63
2019-06-10T13:09:13.038Z,5.20
2019-06-10T13:11:43.391Z,5.60
2019-06-10T13:14:13.031Z,5.80
2019-06-10T13:16:43.327Z,5.30
2019-06-10T13:19:13.204Z,5.53
2019-06-10T13:21:42.694Z,6.27
2019-06-10T13:24:13.185Z,6.10
2019-06-10T13:26:43.239Z,5.70
2019-06-10T13:29:16.916Z,6.20
2019-06-10T13:31:43.535Z,6.23
2019-06-10T13:34:14.603Z,7.00
2019-06-10T13:36:42.925Z,6.70
2019-06-10T13:39:13.433Z,6.30
2019-06-10T13:41:43.761Z,7.17
2019-06-10T13:44:16.614Z,7.00
2019-06-10T13:46:43.427Z,6.60
2019-06-10T13:49:14.891Z,6.60
2019-06-10T13:51:43.920Z,6.87
2019-06-10T13:54:13.951Z,6.90
2019-06-10T13:56:47.334Z,7.60
2019-06-10T13:59:22.765Z,7.20
2019-06-10T14:01:49.459Z,6.37
2019-06-10T14:04:24.783Z,7.73
2019-06-10T14:06:50.601Z,7.50
2019-06-10T14:09:19.280Z,8.17
2019-06-10T14:11:47.963Z,7.03
2019-06-10T14:14:18.204Z,8.10
2019-06-10T14:16:46.916Z,8.00
2019-06-10T14:19:16.200Z,7.00
2019-06-10T14:21:45.130Z,7.80
2019-06-10T14:24:16.249Z,8.10
2019-06-10T14:26:45.555Z,8.30
2019-06-10T14:29:15.963Z,8.10
2019-06-10T14:31:47.664Z,7.93
2019-06-10T14:34:17.997Z,8.30
2019-06-10T14:36:45.570Z,8.70
2019-06-10T14:39:15.919Z,8.83
2019-06-10T14:41:46.239Z,16.80
2019-06-10T14:44:17.742Z,10.10
2019-06-10T14:46:45.283Z,12.47
2019-06-10T14:49:16.559Z,8.60
2019-06-10T14:51:44.121Z,9.10
2019-06-10T14:54:16.349Z,8.53
2019-06-10T14:56:56.896Z,9.07
2019-06-10T14:59:24.070Z,8.67
2019-06-10T15:01:52.700Z,9.63
2019-06-10T15:04:23.262Z,8.23
2019-06-10T15:06:55.139Z,8.97
2019-06-10T15:09:23.675Z,9.70
2019-06-10T15:11:52.297Z,9.57
2019-06-10T15:14:23.303Z,8.30
2019-06-10T15:16:53.386Z,8.90
2019-06-10T15:19:28.667Z,8.80
2019-06-10T15:21:52.611Z,8.93
2019-06-10T15:24:23.744Z,8.13
2019-06-10T15:27:07.909Z,9.00
2019-06-10T15:29:23.481Z,9.10
2019-06-10T15:32:05.985Z,8.50
2019-06-10T15:34:22.415Z,9.00
2019-06-10T15:36:52.728Z,8.40
2019-06-10T15:39:23.970Z,8.70
2019-06-10T15:41:52.427Z,8.30
2019-06-10T15:44:40.485Z,9.53
2019-06-10T15:46:52.476Z,9.00
2019-06-10T15:49:25.813Z,8.90
2019-06-10T15:51:52.592Z,9.67
2019-06-10T15:54:25.143Z,9.70
2019-06-10T15:56:56.106Z,9.60
2019-06-10T15:59:22.202Z,9.10
2019-06-10T16:01:53.122Z,9.27
2019-06-10T16:04:25.135Z,8.90
2019-06-10T16:06:53.055Z,9.67
2019-06-10T16:09:22.529Z,9.50
2019-06-10T16:11:53.770Z,9.10
2019-06-10T16:14:25.143Z,9.30
2019-06-10T16:16:52.675Z,9.60
2019-06-10T16:19:21.383Z,9.37
2019-06-10T16:21:54.839Z,9.30
2019-06-10T16:24:25.950Z,10.07
2019-06-10T16:26:54.075Z,9.27
2019-06-10T16:29:24.253Z,9.20
2019-06-10T16:31:53.069Z,9.30
2019-06-10T16:34:25.027Z,9.10
2019-06-10T16:36:53.200Z,9.30
2019-06-10T16:39:24.164Z,9.10
2019-06-10T16:41:52.513Z,9.47
2019-06-10T16:44:25.037Z,9.20
2019-06-10T16:46:52.692Z,9.37
2019-06-10T16:49:21.509Z,8.97
2019-06-10T16:51:52.045Z,9.30
2019-06-10T16:54:23.679Z,9.50
2019-06-10T16:56:56.272Z,10.13
2019-06-10T16:59:27.525Z,9.70
2019-06-10T17:01:55.810Z,9.10
2019-06-10T17:04:26.216Z,9.33
2019-06-10T17:06:54.832Z,9.77
2019-06-10T17:09:24.984Z,9.60
2019-06-10T17:11:53.858Z,9.57
2019-06-10T17:14:24.707Z,8.83
2019-06-10T17:16:52.974Z,9.20
2019-06-10T17:19:26.445Z,9.77
2019-06-10T17:21:52.775Z,9.57
2019-06-10T17:24:23.800Z,8.23
2019-06-10T17:26:53.222Z,9.43
2019-06-10T17:29:24.392Z,9.30
2019-06-10T17:31:53.109Z,9.03
2019-06-10T17:34:24.641Z,10.13
2019-06-10T17:36:53.810Z,9.40
2019-06-10T17:39:24.674Z,10.00
2019-06-10T17:41:53.005Z,9.30
2019-06-10T17:44:24.363Z,8.80
2019-06-10T17:46:52.850Z,9.00
2019-06-10T17:49:23.794Z,9.30
2019-06-10T17:51:52.613Z,8.70
2019-06-10T17:54:22.510Z,9.80
2019-06-10T17:56:51.745Z,9.37
2019-06-10T17:59:22.504Z,9.03
2019-06-10T18:01:52.391Z,9.20
2019-06-10T18:04:22.643Z,10.03
2019-06-10T18:06:52.931Z,9.63
2019-06-10T18:09:24.036Z,10.70
2019-06-10T18:11:52.207Z,9.43
2019-06-10T18:14:22.999Z,10.00
2019-06-10T18:16:52.425Z,10.47
2019-06-10T18:19:22.247Z,10.00
2019-06-10T18:21:52.281Z,9.20
2019-06-10T18:24:23.933Z,8.93
2019-06-10T18:26:52.922Z,10.47
2019-06-10T18:29:22.935Z,9.60
2019-06-10T18:31:53.018Z,10.37
2019-06-10T18:34:25.678Z,9.77
2019-06-10T18:36:54.479Z,10.10
2019-06-10T18:39:23.077Z,9.30
2019-06-10T18:41:52.932Z,10.50
2019-06-10T18:44:24.068Z,10.43
2019-06-10T18:46:52.155Z,8.80
2019-06-10T18:49:22.677Z,10.03
2019-06-10T18:51:53.197Z,9.90
2019-06-10T18:54:22.547Z,10.40
2019-06-10T18:56:52.593Z,9.07
2019-06-10T18:59:21.538Z,9.80
2019-06-10T19:01:52.462Z,9.80
2019-06-10T19:04:22.416Z,10.80
2019-06-10T19:06:53.283Z,10.30
2019-06-10T19:09:21.878Z,9.37
2019-06-10T19:11:50.555Z,9.83
2019-06-10T19:14:19.243Z,9.00
2019-06-10T19:16:47.807Z,9.33
2019-06-10T19:19:19.548Z,10.33
2019-06-10T19:22:04.680Z,9.20
2019-06-10T19:24:20.326Z,9.30
2019-06-10T19:26:48.879Z,10.50
2019-06-10T19:29:30.144Z,9.73
2019-06-10T19:31:52.729Z,10.33
2019-06-10T19:34:22.471Z,10.37
2019-06-10T19:36:52.201Z,9.50
2019-06-10T19:39:22.275Z,9.57
2019-06-10T19:41:53.055Z,10.70
2019-06-10T19:44:23.453Z,9.77
2019-06-10T19:46:52.254Z,9.60
2019-06-10T19:49:21.077Z,9.80
2019-06-10T19:51:49.645Z,10.20
2019-06-10T19:54:18.244Z,10.47
2019-06-10T19:56:46.926Z,9.80
2019-06-10T19:59:15.522Z,10.60
2019-06-10T20:01:46.591Z,10.27
2019-06-10T20:04:17.857Z,10.40
2019-06-10T20:06:50.293Z,12.00
2019-06-10T20:09:15.155Z,10.13
2019-06-10T20:11:46.032Z,10.27
2019-06-10T20:14:14.104Z,10.77
2019-06-10T20:16:44.655Z,11.03
2019-06-10T20:19:13.116Z,11.27
2019-06-10T20:21:43.609Z,11.30
2019-06-10T20:24:12.454Z,11.17
2019-06-10T20:26:43.284Z,10.13
2019-06-10T20:29:12.616Z,10.80
2019-06-10T20:31:45.182Z,11.00
2019-06-10T20:34:13.281Z,10.90
2019-06-10T20:36:44.094Z,10.40
2019-06-10T20:39:12.643Z,11.33
2019-06-10T20:41:47.200Z,11.50
2019-06-10T20:44:13.131Z,11.63
2019-06-10T20:46:43.521Z,12.30
2019-06-10T20:49:13.500Z,11.37
2019-06-10T20:51:55.715Z,11.53
2019-06-10T20:54:13.054Z,11.43
2019-06-10T20:56:45.578Z,10.90
2019-06-10T20:59:13.145Z,12.40
2019-06-10T21:01:44.500Z,11.43
2019-06-10T21:04:13.161Z,11.27
2019-06-10T21:06:43.601Z,11.03
2019-06-10T21:09:13.388Z,11.80
2019-06-10T21:11:45.050Z,11.03
2019-06-10T21:14:12.681Z,12.50
2019-06-10T21:16:42.051Z,12.37
2019-06-10T21:19:10.937Z,12.27
2019-06-10T21:21:40.381Z,12.80
2019-06-10T21:24:09.710Z,13.50
2019-06-10T21:26:38.271Z,11.73
2019-06-10T21:29:06.912Z,13.30
2019-06-10T21:31:35.482Z,12.50
2019-06-10T21:34:04.216Z,13.30
2019-06-10T21:36:32.777Z,13.07
2019-06-10T21:39:02.789Z,12.20
2019-06-10T21:41:31.747Z,14.30
2019-06-10T21:44:02.778Z,13.27
2019-06-10T21:46:32.591Z,14.27
2019-06-10T21:49:01.047Z,13.90
2019-06-10T21:51:31.658Z,13.83
2019-06-10T21:54:00.005Z,13.67
2019-06-10T21:56:28.660Z,12.90
2019-06-10T21:58:57.375Z,14.40
2019-06-10T22:01:25.951Z,15.20
2019-06-10T22:04:00.719Z,15.50
2019-06-10T22:06:24.811Z,14.87
2019-06-10T22:08:56.324Z,15.60
2019-06-10T22:11:23.808Z,15.67
2019-06-10T22:13:53.341Z,16.43
2019-06-10T22:16:22.869Z,15.67
2019-06-10T22:18:52.598Z,15.67
2019-06-10T22:21:22.686Z,16.80
2019-06-10T22:23:55.049Z,17.60
2019-06-10T22:26:22.593Z,18.57
2019-06-10T22:28:54.106Z,17.97
2019-06-10T22:31:23.674Z,16.90
2019-06-10T22:33:54.257Z,18.93
2019-06-10T22:36:23.218Z,18.30
2019-06-10T22:38:55.795Z,18.27
2019-06-10T22:41:22.761Z,18.30
2019-06-10T22:43:53.835Z,18.00
2019-06-10T22:46:23.223Z,19.80
2019-06-10T22:48:53.434Z,19.60
2019-06-10T22:51:22.868Z,20.40
2019-06-10T22:53:54.707Z,21.27
2019-06-10T22:56:22.052Z,21.23
2019-06-10T22:58:53.958Z,21.70
2019-06-10T23:01:31.718Z,21.33
2019-06-10T23:03:52.140Z,22.00
2019-06-10T23:06:23.282Z,22.63
2019-06-10T23:08:54.661Z,22.60
2019-06-10T23:11:23.870Z,22.20
2019-06-10T23:13:54.717Z,22.70
2019-06-10T23:16:22.414Z,23.57
2019-06-10T23:18:53.617Z,22.30
2019-06-10T23:21:21.261Z,23.90
2019-06-10T23:23:52.251Z,24.33
2019-06-10T23:26:22.406Z,24.20
2019-06-10T23:28:52.789Z,23.70
2019-06-10T23:31:22.847Z,23.80
2019-06-10T23:33:53.501Z,23.30
2019-06-10T23:36:23.558Z,23.23
2019-06-10T23:38:52.807Z,23.30
2019-06-10T23:41:22.481Z,24.40
2019-06-10T23:43:51.269Z,24.47
2019-06-10T23:46:19.866Z,23.20
2019-06-10T23:48:48.444Z,26.60
2019-06-10T23:51:17.112Z,27.57
2019-06-10T23:53:45.702Z,27.50
2019-06-10T23:56:14.295Z,22.97
2019-06-10T23:58:43.377Z,23.90
